createdAt,value
2018-03-24T00:02:22.221Z,99105.95
2018-03-24T00:04:49.701Z,99098.34
2018-03-24T00:07:17.173Z,99100.26
2018-03-24T00:09:44.767Z,99097.74
2018-03-24T00:12:12.227Z,99098.73
2018-03-24T00:14:39.665Z,99098.61
2018-03-24T00:17:07.129Z,99092.56
2018-03-24T00:19:34.586Z,99085.32
2018-03-24T00:22:02.338Z,99087.67
2018-03-24T00:24:29.781Z,99088.67
2018-03-24T00:26:57.229Z,99083.27
2018-03-24T00:29:24.697Z,99084.29
2018-03-24T00:31:52.164Z,99089.23
2018-03-24T00:34:19.889Z,99081.01
2018-03-24T00:36:47.329Z,99082.59
2018-03-24T00:39:14.773Z,99077.17
2018-03-24T00:41:42.253Z,99062.67
2018-03-24T00:44:09.701Z,99072.09
2018-03-24T00:46:37.313Z,99072.59
2018-03-24T00:49:04.757Z,99071.91
2018-03-24T00:51:32.214Z,99069.31
2018-03-24T00:53:59.685Z,99066.61
2018-03-24T00:56:27.136Z,99067.11
2018-03-24T00:58:54.909Z,99071.80
2018-03-24T01:01:22.362Z,99068.78
2018-03-24T01:03:49.805Z,99073.09
2018-03-24T01:06:17.282Z,99070.39
2018-03-24T01:08:44.733Z,99067.83
2018-03-24T01:11:12.414Z,99060.68
2018-03-24T01:13:39.857Z,99059.34
2018-03-24T01:16:07.301Z,99058.53
2018-03-24T01:18:34.765Z,99050.00
2018-03-24T01:21:02.221Z,99056.45
2018-03-24T01:23:29.873Z,99057.70
2018-03-24T01:25:57.329Z,99054.73
2018-03-24T01:28:24.886Z,99054.25
2018-03-24T01:30:52.345Z,99055.37
2018-03-24T01:33:19.797Z,99054.36
2018-03-24T01:35:47.574Z,99053.21
2018-03-24T01:38:15.041Z,99053.98
2018-03-24T01:40:42.510Z,99056.06
2018-03-24T01:43:09.973Z,99057.64
2018-03-24T01:45:37.417Z,99054.34
2018-03-24T01:48:04.901Z,99051.21
2018-03-24T01:50:32.341Z,99050.63
2018-03-24T01:52:59.789Z,99046.57
2018-03-24T01:55:27.269Z,99050.82
2018-03-24T01:57:54.709Z,99046.14
2018-03-24T02:00:22.325Z,99053.21
2018-03-24T02:02:49.769Z,99047.14
2018-03-24T02:05:17.223Z,99040.99
2018-03-24T02:07:44.704Z,99046.44
2018-03-24T02:10:12.173Z,99039.72
2018-03-24T02:12:39.673Z,99037.05
2018-03-24T02:15:07.126Z,99035.55
2018-03-24T02:17:34.589Z,99035.45
2018-03-24T02:20:02.063Z,99030.47
2018-03-24T02:22:29.535Z,99034.81
2018-03-24T02:24:57.021Z,99029.73
2018-03-24T02:27:24.473Z,99023.53
2018-03-24T02:29:51.926Z,99026.17
2018-03-24T02:32:19.578Z,99022.60
2018-03-24T02:34:47.042Z,99025.06
2018-03-24T02:37:14.674Z,99017.59
2018-03-24T02:39:42.169Z,99017.23
2018-03-24T02:42:09.784Z,99010.47
2018-03-24T02:44:37.266Z,99019.13
2018-03-24T02:47:04.708Z,99010.45
2018-03-24T02:49:32.181Z,99011.18
2018-03-24T02:51:59.626Z,99013.77
2018-03-24T02:54:27.069Z,99015.22
2018-03-24T02:56:54.545Z,99014.38
2018-03-24T02:59:21.985Z,99018.95
2018-03-24T03:01:49.781Z,99013.00
2018-03-24T03:04:17.257Z,99005.64
2018-03-24T03:06:44.706Z,99003.53
2018-03-24T03:09:12.190Z,99005.60
2018-03-24T03:11:39.637Z,99005.23
2018-03-24T03:14:07.330Z,98997.36
2018-03-24T03:16:34.770Z,99001.14
2018-03-24T03:19:02.225Z,99004.39
2018-03-24T03:24:31.717Z,98993.19
2018-03-24T03:26:59.390Z,98990.56
2018-03-24T03:29:26.829Z,98992.75
2018-03-24T03:31:55.249Z,98989.27
2018-03-24T03:34:22.721Z,98992.05
2018-03-24T03:36:50.190Z,98987.69
2018-03-24T03:39:17.766Z,98987.92
2018-03-24T03:41:45.210Z,98989.41
2018-03-24T03:44:12.657Z,98991.27
2018-03-24T03:46:40.129Z,98987.27
2018-03-24T03:49:07.596Z,98989.72
2018-03-24T03:51:35.217Z,98986.86
2018-03-24T03:54:02.669Z,98984.53
2018-03-24T03:56:30.134Z,98985.84
2018-03-24T03:58:57.593Z,98988.85
2018-03-24T04:01:25.048Z,98996.39
2018-03-24T04:03:52.581Z,98991.80
2018-03-24T04:06:20.041Z,98990.61
2018-03-24T04:08:47.494Z,98993.19
2018-03-24T04:11:14.964Z,98998.20
2018-03-24T04:13:42.409Z,98997.69
2018-03-24T04:16:10.114Z,98995.91
2018-03-24T04:18:37.594Z,98999.67
2018-03-24T04:21:05.049Z,98994.54
2018-03-24T04:23:32.557Z,98991.59
2018-03-24T04:26:00.006Z,98990.20
2018-03-24T04:28:27.478Z,98989.70
2018-03-24T04:30:54.935Z,98995.13
2018-03-24T04:33:22.397Z,98992.00
2018-03-24T04:35:49.868Z,98992.59
2018-03-24T04:38:17.310Z,98993.48
2018-03-24T04:40:44.805Z,98993.23
2018-03-24T04:43:12.265Z,98990.83
2018-03-24T04:45:39.715Z,98994.27
2018-03-24T04:48:07.177Z,98992.16
2018-03-24T04:50:34.650Z,98996.21
2018-03-24T04:53:02.362Z,98997.11
2018-03-24T04:55:29.801Z,98997.92
2018-03-24T04:57:57.244Z,98987.55
2018-03-24T05:00:24.705Z,98988.55
2018-03-24T05:02:52.191Z,98996.53
2018-03-24T05:05:19.722Z,98991.16
2018-03-24T05:07:47.165Z,98989.26
2018-03-24T05:10:14.609Z,98988.11
2018-03-24T05:12:42.117Z,98993.28
2018-03-24T05:15:09.557Z,98991.86
2018-03-24T05:17:37.049Z,98989.91
2018-03-24T05:20:04.513Z,98984.69
2018-03-24T05:22:31.954Z,98983.41
2018-03-24T05:24:59.427Z,98985.40
2018-03-24T05:27:26.869Z,98991.22
2018-03-24T05:29:54.581Z,98989.32
2018-03-24T05:32:22.035Z,98991.02
2018-03-24T05:34:49.508Z,98997.80
2018-03-24T05:37:16.989Z,98996.43
2018-03-24T05:39:44.442Z,99002.65
2018-03-24T05:42:12.071Z,99002.37
2018-03-24T05:44:39.530Z,98999.16
2018-03-24T05:47:06.977Z,99007.73
2018-03-24T05:49:34.442Z,99003.36
2018-03-24T05:52:01.896Z,98999.83
2018-03-24T05:54:29.615Z,99007.80
2018-03-24T05:56:57.064Z,99015.22
2018-03-24T05:59:24.505Z,99009.64
2018-03-24T06:01:51.982Z,99020.93
2018-03-24T06:04:19.426Z,99014.88
2018-03-24T06:06:46.909Z,99011.83
2018-03-24T06:09:14.357Z,99011.63
2018-03-24T06:11:41.805Z,99012.94
2018-03-24T06:14:09.273Z,99009.13
2018-03-24T06:16:36.721Z,99013.28
2018-03-24T06:19:04.194Z,99010.64
2018-03-24T06:21:31.646Z,99007.94
2018-03-24T06:23:59.086Z,99017.91
2018-03-24T06:26:26.549Z,99009.48
2018-03-24T06:28:53.993Z,99021.91
2018-03-24T06:31:33.313Z,99022.92
2018-03-24T06:34:00.765Z,99016.11
2018-03-24T06:36:29.123Z,99025.09
2018-03-24T06:38:56.593Z,99020.53
2018-03-24T06:41:24.047Z,99017.54
2018-03-24T06:43:51.566Z,99025.59
2018-03-24T06:46:19.015Z,99020.52
2018-03-24T06:48:46.461Z,99024.47
2018-03-24T06:51:13.923Z,99025.03
2018-03-24T06:53:41.369Z,99027.48
2018-03-24T06:56:08.996Z,99021.80
2018-03-24T06:58:36.457Z,99020.10
2018-03-24T07:01:03.901Z,99024.73
2018-03-24T07:03:31.369Z,99020.39
2018-03-24T07:05:58.817Z,99026.52
2018-03-24T07:08:26.672Z,99023.30
2018-03-24T07:10:54.114Z,99027.72
2018-03-24T07:13:21.566Z,99030.67
2018-03-24T07:15:49.087Z,99034.37
2018-03-24T07:18:16.499Z,99039.68
2018-03-24T07:20:44.345Z,99038.91
2018-03-24T07:23:11.805Z,99038.20
2018-03-24T07:25:39.248Z,99037.20
2018-03-24T07:28:06.713Z,99029.53
2018-03-24T07:30:34.157Z,99036.59
2018-03-24T07:33:01.644Z,99037.88
2018-03-24T07:35:29.089Z,99044.95
2018-03-24T07:37:56.537Z,99044.07
2018-03-24T07:40:24.003Z,99044.22
2018-03-24T07:42:51.445Z,99053.18
2018-03-24T07:45:18.940Z,99056.23
2018-03-24T07:47:46.396Z,99057.05
2018-03-24T07:50:13.845Z,99063.06
2018-03-24T07:52:41.362Z,99057.64
2018-03-24T07:55:08.814Z,99064.02
2018-03-24T07:57:36.489Z,99057.55
2018-03-24T08:00:03.942Z,99053.52
2018-03-24T08:02:31.393Z,99059.05
2018-03-24T08:04:58.886Z,99054.61
2018-03-24T08:07:26.333Z,99054.10
2018-03-24T08:09:54.062Z,99054.05
2018-03-24T08:12:21.501Z,99057.68
2018-03-24T08:14:48.951Z,99055.61
2018-03-24T08:17:16.421Z,99057.17
2018-03-24T08:19:43.893Z,99063.97
2018-03-24T08:22:11.489Z,99064.96
2018-03-24T08:24:38.932Z,99070.11
2018-03-24T08:27:06.387Z,99061.03
2018-03-24T08:29:33.901Z,99069.08
2018-03-24T08:32:01.341Z,99059.70
2018-03-24T08:34:28.853Z,99064.96
2018-03-24T08:36:56.305Z,99065.36
2018-03-24T08:39:23.777Z,99074.19
2018-03-24T08:41:51.237Z,99061.02
2018-03-24T08:44:18.709Z,99064.80
2018-03-24T08:46:46.181Z,99065.33
2018-03-24T08:49:13.637Z,99069.00
2018-03-24T08:51:41.106Z,99073.94
2018-03-24T08:54:08.581Z,99075.87
2018-03-24T08:56:36.026Z,99069.89
2018-03-24T08:59:03.693Z,99069.89
2018-03-24T09:01:31.157Z,99065.52
2018-03-24T09:03:58.601Z,99066.30
2018-03-24T09:06:26.061Z,99067.33
2018-03-24T09:08:53.509Z,99063.30
2018-03-24T09:11:20.982Z,99066.00
2018-03-24T09:13:48.421Z,99065.47
2018-03-24T09:16:15.893Z,99066.63
2018-03-24T09:18:43.365Z,99074.41
2018-03-24T09:21:10.818Z,99071.09
2018-03-24T09:23:38.597Z,99073.16
2018-03-24T09:26:06.087Z,99077.22
2018-03-24T09:28:33.542Z,99073.60
2018-03-24T09:31:01.041Z,99070.01
2018-03-24T09:33:28.486Z,99077.19
2018-03-24T09:35:56.092Z,99078.52
2018-03-24T09:38:23.554Z,99078.13
2018-03-24T09:40:51.003Z,99073.95
2018-03-24T09:43:18.470Z,99076.27
2018-03-24T09:45:45.921Z,99079.55
2018-03-24T09:48:13.441Z,99077.09
2018-03-24T09:50:40.925Z,99080.64
2018-03-24T09:53:08.373Z,99074.56
2018-03-24T09:55:35.850Z,99076.76
2018-03-24T09:58:03.300Z,99077.59
2018-03-24T10:00:30.826Z,99071.27
2018-03-24T10:02:59.141Z,99087.98
2018-03-24T10:05:26.593Z,99083.86
2018-03-24T10:07:54.057Z,99076.11
2018-03-24T10:10:21.512Z,99077.12
2018-03-24T10:12:49.149Z,99079.88
2018-03-24T10:15:16.873Z,99083.75
2018-03-24T10:17:44.324Z,99072.10
2018-03-24T10:20:11.794Z,99065.90
2018-03-24T10:22:51.062Z,99081.98
2018-03-24T10:25:18.529Z,99065.02
2018-03-24T10:27:45.977Z,99057.80
2018-03-24T10:30:13.561Z,99058.20
2018-03-24T10:32:41.032Z,99049.39
2018-03-24T10:35:08.483Z,99057.73
2018-03-24T10:37:41.542Z,99067.55
2018-03-24T10:40:08.993Z,99067.91
2018-03-24T10:42:36.574Z,99067.22
2018-03-24T10:45:04.045Z,99071.09
2018-03-24T10:47:31.501Z,99066.89
2018-03-24T10:49:58.989Z,99067.67
2018-03-24T10:52:26.469Z,99068.41
2018-03-24T10:54:54.060Z,99064.25
2018-03-24T10:57:21.518Z,99062.28
2018-03-24T10:59:48.977Z,99067.78
2018-03-24T11:02:16.446Z,99060.11
2018-03-24T11:04:43.909Z,99054.89
2018-03-24T11:07:11.398Z,99058.63
2018-03-24T11:09:38.845Z,99053.75
2018-03-24T11:12:06.294Z,99049.83
2018-03-24T11:14:33.769Z,99040.18
2018-03-24T11:17:01.239Z,99046.97
2018-03-24T11:19:28.725Z,99040.89
2018-03-24T11:21:56.185Z,99039.94
2018-03-24T11:24:23.665Z,99036.14
2018-03-24T11:26:51.174Z,99031.05
2018-03-24T11:29:18.617Z,99033.27
2018-03-24T11:31:46.117Z,99026.72
2018-03-24T11:34:13.573Z,99029.93
2018-03-24T11:36:41.041Z,99038.41
2018-03-24T11:39:08.519Z,99029.64
2018-03-24T11:41:35.967Z,99032.81
2018-03-24T11:44:03.449Z,99033.29
2018-03-24T11:46:30.885Z,99030.80
2018-03-24T11:48:58.341Z,99029.16
2018-03-24T11:51:25.805Z,99029.94
2018-03-24T11:53:53.258Z,99029.48
2018-03-24T11:56:20.877Z,99023.27
2018-03-24T11:58:48.321Z,99034.98
2018-03-24T12:01:15.762Z,99022.72
2018-03-24T12:03:43.231Z,99020.78
2018-03-24T12:06:10.705Z,99016.44
2018-03-24T12:08:38.315Z,99027.16
2018-03-24T12:11:05.766Z,99030.38
2018-03-24T12:13:33.213Z,99029.02
2018-03-24T12:16:00.688Z,99027.67
2018-03-24T12:18:28.137Z,99018.80
2018-03-24T12:20:55.635Z,99020.50
2018-03-24T12:23:23.081Z,99022.45
2018-03-24T12:25:50.521Z,99018.91
2018-03-24T12:28:17.984Z,99021.06
2018-03-24T12:30:45.436Z,99019.53
2018-03-24T12:33:12.917Z,99021.46
2018-03-24T12:35:40.373Z,99026.70
2018-03-24T12:38:07.846Z,99018.97
2018-03-24T12:40:35.311Z,99020.48
2018-03-24T12:43:02.760Z,99021.83
2018-03-24T12:45:30.390Z,99020.91
2018-03-24T12:47:57.845Z,99025.64
2018-03-24T12:50:25.297Z,99024.27
2018-03-24T12:52:52.922Z,99022.39
2018-03-24T12:55:20.369Z,99022.39
2018-03-24T12:57:47.864Z,99014.73
2018-03-24T13:00:15.310Z,99016.79
2018-03-24T13:02:42.754Z,99011.55
2018-03-24T13:05:10.217Z,99010.05
2018-03-24T13:07:37.666Z,99011.67
2018-03-24T13:10:05.498Z,99016.41
2018-03-24T13:12:32.941Z,99017.45
2018-03-24T13:15:00.381Z,99018.03
2018-03-24T13:17:27.853Z,99014.45
2018-03-24T13:19:55.301Z,99018.02
2018-03-24T13:22:23.049Z,99028.69
2018-03-24T13:24:50.485Z,99017.95
2018-03-24T13:27:17.937Z,99020.97
2018-03-24T13:29:45.426Z,99017.35
2018-03-24T13:32:12.897Z,99016.95
2018-03-24T13:34:40.393Z,99021.95
2018-03-24T13:37:07.877Z,99018.52
2018-03-24T13:39:35.338Z,99012.86
2018-03-24T13:42:02.813Z,99015.64
2018-03-24T13:44:30.282Z,99011.17
2018-03-24T13:46:57.755Z,99016.63
2018-03-24T13:49:25.209Z,99017.44
2018-03-24T13:51:52.654Z,99016.14
2018-03-24T13:54:20.137Z,99008.26
2018-03-24T13:56:47.585Z,99008.67
2018-03-24T13:59:15.283Z,99008.61
2018-03-24T14:01:42.757Z,99010.32
2018-03-24T14:04:10.202Z,99007.78
2018-03-24T14:06:37.676Z,99000.78
2018-03-24T14:09:05.170Z,99001.38
2018-03-24T14:11:32.857Z,98997.94
2018-03-24T14:14:00.313Z,98998.49
2018-03-24T14:16:27.778Z,98999.04
2018-03-24T14:18:55.265Z,99010.92
2018-03-24T14:21:22.709Z,99011.27
2018-03-24T14:23:50.416Z,99015.52
2018-03-24T14:26:17.976Z,99007.14
2018-03-24T14:28:45.413Z,99009.64
2018-03-24T14:31:12.889Z,99003.31
2018-03-24T14:33:40.344Z,99008.00
2018-03-24T14:36:07.823Z,99006.36
2018-03-24T14:38:35.266Z,99004.50
2018-03-24T14:41:02.711Z,98998.94
2018-03-24T14:43:30.206Z,98997.27
2018-03-24T14:45:57.658Z,98998.74
2018-03-24T14:48:25.401Z,98986.34
2018-03-24T14:50:52.852Z,98990.11
2018-03-24T14:53:20.301Z,98990.75
2018-03-24T14:55:47.778Z,98994.02
2018-03-24T14:58:15.226Z,98994.33
2018-03-24T15:00:42.866Z,98993.37
2018-03-24T15:03:10.313Z,98992.75
2018-03-24T15:05:37.777Z,98999.84
2018-03-24T15:08:05.283Z,98994.66
2018-03-24T15:10:32.727Z,99002.90
2018-03-24T15:13:00.408Z,98999.79
2018-03-24T15:15:27.849Z,98995.00
2018-03-24T15:17:55.286Z,98995.73
2018-03-24T15:20:22.785Z,98998.25
2018-03-24T15:22:50.222Z,98995.08
2018-03-24T15:25:17.868Z,98993.63
2018-03-24T15:27:45.368Z,98993.52
2018-03-24T15:30:24.958Z,98999.11
2018-03-24T15:32:52.641Z,98991.31
2018-03-24T15:35:46.654Z,98996.14
2018-03-24T15:38:14.140Z,98987.19
2018-03-24T15:40:41.782Z,98989.63
2018-03-24T15:43:09.228Z,98983.50
2018-03-24T15:45:36.682Z,98977.68
2018-03-24T15:48:04.167Z,98978.09
2018-03-24T15:50:31.610Z,98988.02
2018-03-24T15:52:59.230Z,98980.33
2018-03-24T15:55:26.689Z,98983.03
2018-03-24T15:57:54.145Z,98988.58
2018-03-24T16:00:21.602Z,98986.28
2018-03-24T16:02:49.245Z,98987.91
2018-03-24T16:05:16.745Z,98987.36
2018-03-24T16:07:44.189Z,98985.16
2018-03-24T16:10:11.647Z,98993.02
2018-03-24T16:12:39.113Z,98987.75
2018-03-24T16:15:06.621Z,98992.64
2018-03-24T16:17:34.550Z,98988.69
2018-03-24T16:20:01.994Z,98996.67
2018-03-24T16:22:29.445Z,98994.87
2018-03-24T16:24:56.950Z,98995.69
2018-03-24T16:27:24.394Z,98999.33
2018-03-24T16:29:51.887Z,98994.91
2018-03-24T16:32:19.339Z,99005.48
2018-03-24T16:34:46.801Z,99010.85
2018-03-24T16:37:14.262Z,98996.97
2018-03-24T16:39:41.709Z,99006.17
2018-03-24T16:42:09.279Z,99006.52
2018-03-24T16:44:36.748Z,99006.67
2018-03-24T16:47:04.195Z,99010.91
2018-03-24T16:49:31.669Z,99010.66
2018-03-24T16:51:59.120Z,99010.02
2018-03-24T16:54:26.601Z,99006.50
2018-03-24T16:56:54.058Z,99007.25
2018-03-24T16:59:21.502Z,99006.47
2018-03-24T17:01:48.979Z,99017.66
2018-03-24T17:04:16.466Z,99016.50
2018-03-24T17:06:44.171Z,99018.14
2018-03-24T17:09:11.641Z,99025.09
2018-03-24T17:11:39.106Z,99030.72
2018-03-24T17:14:06.643Z,99030.34
2018-03-24T17:16:34.101Z,99040.09
2018-03-24T17:19:01.538Z,99041.67
2018-03-24T17:21:28.996Z,99049.91
2018-03-24T17:23:56.446Z,99041.99
2018-03-24T17:26:23.883Z,99045.50
2018-03-24T17:28:51.354Z,99047.19
2018-03-24T17:31:18.798Z,99053.03
2018-03-24T17:33:46.261Z,99051.06
2018-03-24T17:36:14.009Z,99050.19
2018-03-24T17:38:41.498Z,99049.56
2018-03-24T17:41:08.977Z,99052.27
2018-03-24T17:43:36.789Z,99058.91
2018-03-24T17:46:04.225Z,99050.34
2018-03-24T17:48:31.720Z,99055.47
2018-03-24T17:50:59.397Z,99046.52
2018-03-24T17:53:26.850Z,99050.03
2018-03-24T17:55:54.301Z,99047.80
2018-03-24T17:58:21.907Z,99050.80
2018-03-24T18:00:49.348Z,99051.52
2018-03-24T18:03:16.814Z,99047.52
2018-03-24T18:05:44.286Z,99063.23
2018-03-24T18:08:11.761Z,99067.59
2018-03-24T18:10:39.213Z,99069.47
2018-03-24T18:13:06.681Z,99078.05
2018-03-24T18:15:34.150Z,99077.98
2018-03-24T18:18:01.605Z,99085.08
2018-03-24T18:20:29.111Z,99088.22
2018-03-24T18:22:56.570Z,99089.59
2018-03-24T18:25:24.085Z,99085.20
2018-03-24T18:27:51.530Z,99088.12
2018-03-24T18:30:18.993Z,99089.77
2018-03-24T18:32:46.458Z,99088.14
2018-03-24T18:35:13.946Z,99091.43
2018-03-24T18:37:41.561Z,99090.50
2018-03-24T18:40:09.009Z,99099.70
2018-03-24T18:42:36.441Z,99093.34
2018-03-24T18:45:03.919Z,99092.06
2018-03-24T18:47:31.383Z,99099.04
2018-03-24T18:49:58.989Z,99103.84
2018-03-24T18:52:26.442Z,99110.06
2018-03-24T18:54:53.886Z,99112.88
2018-03-24T18:57:21.479Z,99111.03
2018-03-24T18:59:48.941Z,99110.72
2018-03-24T19:02:16.550Z,99114.27
2018-03-24T19:04:44.262Z,99114.82
2018-03-24T19:07:11.750Z,99116.36
2018-03-24T19:09:39.231Z,99118.21
2018-03-24T19:12:06.670Z,99110.63
2018-03-24T19:14:34.381Z,99119.98
2018-03-24T19:17:01.822Z,99120.97
2018-03-24T19:19:29.277Z,99118.73
2018-03-24T19:21:56.747Z,99124.47
2018-03-24T19:24:24.197Z,99119.20
2018-03-24T19:26:51.834Z,99122.50
2018-03-24T19:29:19.285Z,99129.22
2018-03-24T19:31:46.730Z,99126.52
2018-03-24T19:34:14.207Z,99138.00
2018-03-24T19:36:41.658Z,99140.34
2018-03-24T19:39:09.504Z,99136.64
2018-03-24T19:41:36.971Z,99139.78
2018-03-24T19:44:04.414Z,99139.28
2018-03-24T19:46:31.899Z,99137.41
2018-03-24T19:48:59.361Z,99143.80
2018-03-24T19:51:26.833Z,99139.89
2018-03-24T19:53:54.290Z,99140.45
2018-03-24T19:56:21.786Z,99141.27
2018-03-24T19:58:49.269Z,99137.97
2018-03-24T20:01:16.741Z,99132.53
2018-03-24T20:03:44.401Z,99137.85
2018-03-24T20:06:11.861Z,99133.40
2018-03-24T20:08:39.302Z,99135.16
2018-03-24T20:11:06.779Z,99133.84
2018-03-24T20:13:34.226Z,99131.22
2018-03-24T20:16:01.925Z,99135.23
2018-03-24T20:18:29.378Z,99141.80
2018-03-24T20:20:56.844Z,99151.06
2018-03-24T20:23:24.412Z,99149.36
2018-03-24T20:25:51.888Z,99151.52
2018-03-24T20:28:19.373Z,99154.94
2018-03-24T20:30:46.833Z,99151.42
2018-03-24T20:33:14.293Z,99150.67
2018-03-24T20:35:41.787Z,99152.95
2018-03-24T20:38:09.239Z,99155.27
2018-03-24T20:40:36.845Z,99157.97
2018-03-24T20:43:04.325Z,99159.77
2018-03-24T20:45:31.783Z,99158.39
2018-03-24T20:47:59.257Z,99160.27
2018-03-24T20:50:26.709Z,99159.81
2018-03-24T20:52:54.401Z,99164.38
2018-03-24T20:55:21.849Z,99165.88
2018-03-24T20:57:49.333Z,99168.82
2018-03-24T21:00:16.812Z,99170.44
2018-03-24T21:02:44.276Z,99174.59
2018-03-24T21:05:11.762Z,99177.87
2018-03-24T21:07:39.215Z,99181.36
2018-03-24T21:10:06.657Z,99190.25
2018-03-24T21:12:34.252Z,99183.79
2018-03-24T21:15:01.694Z,99188.02
2018-03-24T21:17:29.194Z,99194.34
2018-03-24T21:19:56.646Z,99196.28
2018-03-24T21:22:24.108Z,99202.69
2018-03-24T21:24:51.602Z,99198.61
2018-03-24T21:27:19.050Z,99197.71
2018-03-24T21:29:46.529Z,99201.13
2018-03-24T21:32:13.978Z,99202.81
2018-03-24T21:34:41.462Z,99196.09
2018-03-24T21:37:08.936Z,99209.41
2018-03-24T21:39:36.415Z,99203.33
2018-03-24T21:42:03.966Z,99206.71
2018-03-24T21:44:31.445Z,99206.61
2018-03-24T21:46:58.893Z,99209.98
2018-03-24T21:49:26.378Z,99209.95
2018-03-24T21:51:53.821Z,99216.74
2018-03-24T21:54:21.317Z,99217.38
2018-03-24T21:56:48.766Z,99220.27
2018-03-24T21:59:16.234Z,99222.30
2018-03-24T22:01:43.717Z,99222.71
2018-03-24T22:04:11.166Z,99222.22
2018-03-24T22:06:38.690Z,99225.81
2018-03-24T22:09:06.134Z,99222.28
2018-03-24T22:11:33.582Z,99220.59
2018-03-24T22:14:01.053Z,99219.13
2018-03-24T22:16:28.499Z,99222.92
2018-03-24T22:18:56.077Z,99223.36
2018-03-24T22:21:23.521Z,99222.12
2018-03-24T22:23:51.003Z,99226.28
2018-03-24T22:26:18.491Z,99222.73
2018-03-24T22:28:45.937Z,99224.47
2018-03-24T22:31:13.418Z,99216.53
2018-03-24T22:33:40.892Z,99219.74
2018-03-24T22:36:08.338Z,99219.14
2018-03-24T22:38:35.837Z,99219.83
2018-03-24T22:41:03.292Z,99217.78
2018-03-24T22:43:30.758Z,99217.39
2018-03-24T22:45:58.209Z,99215.98
2018-03-24T22:48:25.763Z,99224.44
2018-03-24T22:50:53.229Z,99227.84
2018-03-24T22:53:20.705Z,99223.50
2018-03-24T22:55:48.189Z,99226.23
2018-03-24T22:58:15.651Z,99231.02
2018-03-24T23:00:43.109Z,99226.48
2018-03-24T23:03:10.569Z,99224.20
2018-03-24T23:05:38.010Z,99227.11
2018-03-24T23:08:05.522Z,99226.69
2018-03-24T23:10:32.971Z,99222.50
2018-03-24T23:13:00.423Z,99219.94
2018-03-24T23:15:27.891Z,99227.25
2018-03-24T23:17:55.346Z,99229.97
2018-03-24T23:20:22.825Z,99231.68
2018-03-24T23:22:50.284Z,99230.56
2018-03-24T23:25:17.756Z,99229.80
2018-03-24T23:27:45.237Z,99229.28
2018-03-24T23:30:12.709Z,99223.63
2018-03-24T23:32:40.193Z,99226.73
2018-03-24T23:35:07.641Z,99227.12
2018-03-24T23:37:35.117Z,99228.50
2018-03-24T23:40:02.683Z,99225.15
2018-03-24T23:42:30.081Z,99227.22
2018-03-24T23:44:57.573Z,99222.55
2018-03-24T23:47:25.044Z,99225.23
2018-03-24T23:49:52.489Z,99226.13
2018-03-24T23:52:20.161Z,99226.20
2018-03-24T23:54:47.609Z,99225.27
2018-03-24T23:57:15.378Z,99224.70
2018-03-24T23:59:42.818Z,99225.13
